Pagrindinis puslapis
METAR-TAF:

METAR-TAF

Oro uostai :

Mardin, Turkija

platuma: 37-13-58N, ilguma: 40-38-26E, Aukštis: 527 m

Dabartinis oras

Ataskaita buvo paskelbta 28 minutes, ne 07:50 UTC
Vėjas 8 kt iš Pietų/Pietryčių, svyruoja nuo Rytų/Pietryčių ir Pietų/Pietvakarių
Temperatūra 30°C
Drėgmė 25%
Slėgis 1018 hPa
Matomumas 10 km arba daugiau
nėra debesų žemiau 1500 m ir nėra kamuolinių lietaus debesų

METAR: LTCR 180750Z 16008KT 120V210 CAVOK 30/08 Q1018

Laikas: 11:18 (08:18 UTC)

Prognozė

Ataskaita buvo paskelbta 3 valandos ir 38 minutes, ne 04:40 UTC
Prognozė galioja nuo 18 metu 06 UTC su 18 metu 15 UTC
Vėjas 12 kt iš Šiaurės
Matomumas 10 km arba daugiau
nėra debesų žemiau 1500 m ir nėra kamuolinių lietaus debesų
Tapsmas
nuo 18 metu 06 UTC su 18 metu 08 UTC
Vėjas 6 kt iš Pietų/Pietryčių
Mažai debesys ne aukštis 4000 ft
Su prošvaistėmis ne aukštis 10000 ft

TAF: LTCR 180440Z 1806/1815 01012KT CAVOK BECMG 1806/1808 16006KT FEW040 BKN100

Orai ataskaitas ir orų prognozės (METAR, TAF).

turimą stotys yra geltonos ir raudonos taškus žemėlapyje.

Perkelti pele per norėdami pamatyti stoties vardą.

Tada spustelėkite, norėdami matyti oro stebėjimo ir prognozės.

Norėdami pakeisti žemėlapį: spustelėkite ant žalios mygtukų su juodo kryžiaus žemyn,; žalią mygtuką su brūkšneliu, jei norite nutolinti; arba žalių rodyklių gretimoms žemėlapius.


METAR-TAF: